createdAt,value
2019-05-03T00:02:28.880Z,9.60
2019-05-03T00:05:08.495Z,8.93
2019-05-03T00:07:37.551Z,9.33
2019-05-03T00:10:07.915Z,9.30
2019-05-03T00:12:37.137Z,9.83
2019-05-03T00:15:16.596Z,9.20
2019-05-03T00:17:45.649Z,9.67
2019-05-03T00:20:14.762Z,9.63
2019-05-03T00:22:43.901Z,9.57
2019-05-03T00:25:13.618Z,8.83
2019-05-03T00:27:42.885Z,9.57
2019-05-03T00:30:12.119Z,8.97
2019-05-03T00:32:42.743Z,9.10
2019-05-03T00:35:15.766Z,7.93
2019-05-03T00:37:46.899Z,9.33
2019-05-03T00:40:26.660Z,8.37
2019-05-03T00:42:55.754Z,9.40
2019-05-03T00:45:24.824Z,9.40
2019-05-03T00:47:53.945Z,8.33
2019-05-03T00:50:23.391Z,8.67
2019-05-03T00:52:52.717Z,8.37
2019-05-03T00:55:22.076Z,8.63
2019-05-03T00:57:52.146Z,7.77
2019-05-03T01:00:21.799Z,8.00
2019-05-03T01:02:51.684Z,7.67
2019-05-03T01:05:22.695Z,8.03
2019-05-03T01:07:52.542Z,7.97
2019-05-03T01:10:22.625Z,7.60
2019-05-03T01:12:52.466Z,8.50
2019-05-03T01:15:31.949Z,8.10
2019-05-03T01:18:03.664Z,7.80
2019-05-03T01:20:33.156Z,7.60
2019-05-03T01:23:02.223Z,7.33
2019-05-03T01:25:35.221Z,8.07
2019-05-03T01:28:02.046Z,7.40
2019-05-03T01:30:32.055Z,7.83
2019-05-03T01:33:02.834Z,7.83
2019-05-03T01:35:32.382Z,8.13
2019-05-03T01:38:02.559Z,7.20
2019-05-03T01:40:32.568Z,7.00
2019-05-03T01:43:02.241Z,7.53
2019-05-03T01:45:31.902Z,7.50
2019-05-03T01:48:29.659Z,8.33
2019-05-03T01:51:26.769Z,7.17
2019-05-03T01:53:55.810Z,7.53
2019-05-03T01:56:24.919Z,8.07
2019-05-03T01:58:53.958Z,8.10
2019-05-03T02:01:46.455Z,7.23
2019-05-03T02:04:46.228Z,7.80
2019-05-03T02:07:15.282Z,7.40
2019-05-03T02:09:44.430Z,8.20
2019-05-03T02:12:13.500Z,7.73
2019-05-03T02:14:42.575Z,7.97
2019-05-03T02:17:12.428Z,7.40
2019-05-03T02:19:42.128Z,7.83
2019-05-03T02:22:12.104Z,7.77
2019-05-03T02:24:42.244Z,7.87
2019-05-03T02:27:12.762Z,7.60
2019-05-03T02:29:41.957Z,8.03
2019-05-03T02:32:13.268Z,7.83
2019-05-03T02:34:43.958Z,8.23
2019-05-03T02:37:13.852Z,8.30
2019-05-03T02:39:43.162Z,8.30
2019-05-03T02:42:12.324Z,8.73
2019-05-03T02:44:41.423Z,8.47
2019-05-03T02:47:37.228Z,8.30
2019-05-03T02:50:16.462Z,7.73
2019-05-03T02:52:45.763Z,8.60
2019-05-03T02:55:16.229Z,8.67
2019-05-03T02:57:46.686Z,9.27
2019-05-03T03:00:16.837Z,8.60
2019-05-03T03:02:45.972Z,9.30
2019-05-03T03:05:16.648Z,9.33
2019-05-03T03:07:46.289Z,10.20
2019-05-03T03:10:16.233Z,10.17
2019-05-03T03:12:46.498Z,10.43
2019-05-03T03:15:16.388Z,11.07
2019-05-03T03:17:45.837Z,12.03
2019-05-03T03:20:16.110Z,10.00
2019-05-03T03:22:45.844Z,12.30
2019-05-03T03:25:25.573Z,10.73
2019-05-03T03:27:55.673Z,10.40
2019-05-03T03:30:40.121Z,10.53
2019-05-03T03:33:17.163Z,9.50
2019-05-03T03:35:48.875Z,9.47
2019-05-03T03:38:16.360Z,8.27
2019-05-03T03:40:45.546Z,9.37
2019-05-03T03:43:15.700Z,6.93
2019-05-03T03:45:45.505Z,7.20
2019-05-03T03:48:15.842Z,7.33
2019-05-03T03:50:45.746Z,7.23
2019-05-03T03:53:15.472Z,7.97
2019-05-03T03:55:47.258Z,6.97
2019-05-03T03:58:22.548Z,6.87
2019-05-03T04:00:47.246Z,6.43
2019-05-03T04:03:16.400Z,5.83
2019-05-03T04:05:46.788Z,5.90
2019-05-03T04:08:16.453Z,6.80
2019-05-03T04:10:46.405Z,6.90
2019-05-03T04:13:16.259Z,6.37
2019-05-03T04:16:01.461Z,6.83
2019-05-03T04:18:40.269Z,7.73
2019-05-03T04:21:09.316Z,7.20
2019-05-03T04:23:38.627Z,6.93
2019-05-03T04:26:07.659Z,6.83
2019-05-03T04:28:37.270Z,7.67
2019-05-03T04:31:06.451Z,7.67
2019-05-03T04:33:35.968Z,6.23
2019-05-03T04:36:05.642Z,7.30
2019-05-03T04:38:35.709Z,7.10
2019-05-03T04:41:05.902Z,6.83
2019-05-03T04:43:35.741Z,7.80
2019-05-03T04:46:09.649Z,6.73
2019-05-03T04:48:38.802Z,6.57
2019-05-03T04:51:07.995Z,5.73
2019-05-03T04:53:38.729Z,5.77
2019-05-03T04:56:07.751Z,5.37
2019-05-03T04:58:36.810Z,4.90
2019-05-03T05:01:06.886Z,5.23
2019-05-03T05:03:36.480Z,5.93
2019-05-03T05:06:06.533Z,5.60
2019-05-03T05:08:36.170Z,5.43
2019-05-03T05:11:09.694Z,6.47
2019-05-03T05:13:36.277Z,4.97
2019-05-03T05:16:06.086Z,5.60
2019-05-03T05:18:40.311Z,8.97
2019-05-03T05:21:22.775Z,5.63
2019-05-03T05:24:00.337Z,4.97
2019-05-03T05:26:37.153Z,5.17
2019-05-03T05:29:09.400Z,4.97
2019-05-03T05:31:38.543Z,5.13
2019-05-03T05:34:08.887Z,4.90
2019-05-03T05:36:38.088Z,4.30
2019-05-03T05:39:07.292Z,4.87
2019-05-03T05:41:36.360Z,5.20
2019-05-03T05:44:05.573Z,5.20
2019-05-03T05:46:41.468Z,4.70
2019-05-03T05:49:14.688Z,4.17
2019-05-03T05:51:44.509Z,3.90
2019-05-03T05:54:14.407Z,4.63
2019-05-03T05:57:08.366Z,4.80
2019-05-03T05:59:49.069Z,4.20
2019-05-03T06:02:18.856Z,4.73
2019-05-03T06:04:47.922Z,4.53
2019-05-03T06:07:48.247Z,4.03
2019-05-03T06:10:24.893Z,4.70
2019-05-03T06:13:06.550Z,4.43
2019-05-03T06:15:51.555Z,4.43
2019-05-03T06:18:25.661Z,4.00
2019-05-03T06:21:11.261Z,4.60
2019-05-03T06:23:45.343Z,3.53
2019-05-03T06:26:32.013Z,3.67
2019-05-03T06:29:01.141Z,3.40
2019-05-03T06:31:37.273Z,3.50
2019-05-03T06:34:06.409Z,3.43
2019-05-03T06:36:36.189Z,3.00
2019-05-03T06:39:08.390Z,3.30
2019-05-03T06:41:37.677Z,3.70
2019-05-03T06:44:06.874Z,3.33
2019-05-03T06:46:49.342Z,3.13
2019-05-03T06:49:18.429Z,3.30
2019-05-03T06:51:49.688Z,3.63
2019-05-03T06:54:20.574Z,3.63
2019-05-03T06:56:49.887Z,3.10
2019-05-03T06:59:35.748Z,3.00
2019-05-03T07:02:18.233Z,3.53
2019-05-03T07:04:49.382Z,4.00
2019-05-03T07:07:35.462Z,3.80
2019-05-03T07:10:30.689Z,3.63
2019-05-03T07:13:00.710Z,3.57
2019-05-03T07:15:36.828Z,2.87
2019-05-03T07:18:06.097Z,3.40
2019-05-03T07:20:54.431Z,2.40
2019-05-03T07:23:24.480Z,2.40
2019-05-03T07:25:55.190Z,2.83
2019-05-03T07:28:24.795Z,2.33
2019-05-03T07:30:54.545Z,2.80
2019-05-03T07:33:32.033Z,3.03
2019-05-03T07:36:01.165Z,2.73
2019-05-03T07:38:30.325Z,2.73
2019-05-03T07:40:59.454Z,2.80
2019-05-03T07:43:28.547Z,3.03
2019-05-03T07:45:57.695Z,2.40
2019-05-03T07:48:29.953Z,2.77
2019-05-03T07:50:59.293Z,2.20
2019-05-03T07:53:28.565Z,2.30
2019-05-03T07:56:11.037Z,2.60
2019-05-03T07:59:02.891Z,2.83
2019-05-03T08:01:29.959Z,2.60
2019-05-03T08:03:59.138Z,2.53
2019-05-03T08:06:28.242Z,2.30
2019-05-03T08:12:37.321Z,2.30
2019-05-03T08:15:06.597Z,2.67
2019-05-03T08:17:35.716Z,2.53
2019-05-03T08:20:05.246Z,2.47
2019-05-03T08:22:34.591Z,2.23
2019-05-03T08:25:05.429Z,2.00
2019-05-03T08:27:35.428Z,2.60
2019-05-03T08:30:06.932Z,3.47
2019-05-03T08:32:58.836Z,3.07
2019-05-03T08:35:36.451Z,2.60
2019-05-03T08:38:05.487Z,2.47
2019-05-03T08:40:39.894Z,2.43
2019-05-03T08:43:09.026Z,2.23
2019-05-03T08:45:38.168Z,2.77
2019-05-03T08:48:07.227Z,4.07
2019-05-03T08:50:39.059Z,2.67
2019-05-03T08:53:08.080Z,3.17
2019-05-03T08:55:37.288Z,2.70
2019-05-03T08:58:06.326Z,2.70
2019-05-03T09:00:37.864Z,2.70
2019-05-03T09:03:06.982Z,2.70
2019-05-03T09:05:36.208Z,2.37
2019-05-03T09:08:05.745Z,2.33
2019-05-03T09:10:47.430Z,2.57
2019-05-03T09:13:21.019Z,2.20
2019-05-03T09:15:50.770Z,2.17
2019-05-03T09:18:19.861Z,2.83
2019-05-03T09:20:48.899Z,2.60
2019-05-03T09:23:23.235Z,2.70
2019-05-03T09:25:51.001Z,2.23
2019-05-03T09:28:20.078Z,2.50
2019-05-03T09:30:49.165Z,2.60
2019-05-03T09:33:18.245Z,2.03
2019-05-03T09:35:47.310Z,2.97
2019-05-03T09:38:16.469Z,2.90
2019-05-03T09:40:45.631Z,2.73
2019-05-03T09:43:15.192Z,2.50
2019-05-03T09:45:45.750Z,2.70
2019-05-03T09:48:15.217Z,3.00
2019-05-03T09:50:45.228Z,2.90
2019-05-03T09:53:15.910Z,2.63
2019-05-03T09:55:45.085Z,2.47
2019-05-03T09:58:15.368Z,2.60
2019-05-03T10:00:45.197Z,2.73
2019-05-03T10:03:14.233Z,2.70
2019-05-03T10:05:45.680Z,2.50
2019-05-03T10:08:15.796Z,2.83
2019-05-03T10:11:02.568Z,3.00
2019-05-03T10:13:35.207Z,2.90
2019-05-03T10:16:05.832Z,2.97
2019-05-03T10:18:34.960Z,3.53
2019-05-03T10:21:05.366Z,3.40
2019-05-03T10:23:42.373Z,3.67
2019-05-03T10:26:11.704Z,3.77
2019-05-03T10:28:40.799Z,3.83
2019-05-03T10:31:09.913Z,4.20
2019-05-03T10:34:05.765Z,3.77
2019-05-03T10:36:35.621Z,5.03
2019-05-03T10:39:05.737Z,4.07
2019-05-03T10:41:34.932Z,4.57
2019-05-03T10:44:06.017Z,4.67
2019-05-03T10:46:35.813Z,4.20
2019-05-03T10:49:05.745Z,3.80
2019-05-03T10:51:39.818Z,4.70
2019-05-03T10:54:08.901Z,3.20
2019-05-03T10:56:46.888Z,3.47
2019-05-03T10:59:16.639Z,3.17
2019-05-03T11:27:04.305Z,4.13
2019-05-03T11:29:35.394Z,3.10
2019-05-03T11:32:16.802Z,3.07
2019-05-03T11:34:57.838Z,3.20
2019-05-03T11:37:52.889Z,3.17
2019-05-03T11:40:21.984Z,3.30
2019-05-03T11:42:55.281Z,3.30
2019-05-03T11:45:24.688Z,3.43
2019-05-03T11:47:55.049Z,3.83
2019-05-03T11:50:25.358Z,2.97
2019-05-03T11:52:56.019Z,3.40
2019-05-03T11:55:27.476Z,2.90
2019-05-03T11:57:58.073Z,2.97
2019-05-03T12:00:34.339Z,2.97
2019-05-03T12:03:15.609Z,2.80
2019-05-03T12:05:48.274Z,2.93
2019-05-03T12:08:17.542Z,2.73
2019-05-03T12:14:36.804Z,2.60
2019-05-03T12:17:18.963Z,2.53
2019-05-03T12:19:41.748Z,2.40
2019-05-03T12:22:12.317Z,2.87
2019-05-03T12:24:42.100Z,2.20
2019-05-03T12:27:11.834Z,2.50
2019-05-03T12:29:40.900Z,2.70
2019-05-03T12:32:09.954Z,2.67
2019-05-03T12:34:39.049Z,2.70
2019-05-03T12:37:08.088Z,2.67
2019-05-03T12:39:37.098Z,2.80
2019-05-03T12:42:06.213Z,3.17
2019-05-03T12:44:35.555Z,2.60
2019-05-03T12:47:06.049Z,2.90
2019-05-03T12:49:35.998Z,2.70
2019-05-03T12:52:05.458Z,2.90
2019-05-03T12:54:35.676Z,2.70
2019-05-03T12:57:05.219Z,2.53
2019-05-03T13:00:11.206Z,2.70
2019-05-03T13:02:46.938Z,3.33
2019-05-03T13:05:15.996Z,3.10
2019-05-03T13:07:49.931Z,3.27
2019-05-03T13:10:22.454Z,3.47
2019-05-03T13:12:53.157Z,3.60
2019-05-03T13:15:20.836Z,4.03
2019-05-03T13:17:49.914Z,4.63
2019-05-03T13:20:19.041Z,5.10
2019-05-03T13:22:48.208Z,4.47
2019-05-03T13:25:18.837Z,4.13
2019-05-03T13:27:47.934Z,4.07
2019-05-03T13:30:17.193Z,4.53
2019-05-03T13:32:46.259Z,4.00
2019-05-03T13:35:15.316Z,4.17
2019-05-03T13:37:45.312Z,3.77
2019-05-03T13:40:14.839Z,4.10
2019-05-03T13:42:56.316Z,3.73
2019-05-03T13:45:14.746Z,5.20
2019-05-03T13:47:44.770Z,3.87
2019-05-03T13:50:15.231Z,3.90
2019-05-03T13:52:45.311Z,4.00
2019-05-03T13:55:14.656Z,3.30
2019-05-03T13:57:45.843Z,4.03
2019-05-03T14:00:15.268Z,4.47
2019-05-03T14:02:44.950Z,3.90
2019-05-03T14:05:15.488Z,4.17
2019-05-03T14:07:44.822Z,3.97
2019-05-03T14:10:13.777Z,4.17
2019-05-03T14:12:43.034Z,3.83
2019-05-03T14:15:12.131Z,3.33
2019-05-03T14:17:41.203Z,3.57
2019-05-03T14:20:47.314Z,3.30
2019-05-03T14:23:16.417Z,4.17
2019-05-03T14:25:45.475Z,4.00
2019-05-03T14:28:14.713Z,4.03
2019-05-03T14:30:45.426Z,4.00
2019-05-03T14:33:14.705Z,3.80
2019-05-03T14:35:45.214Z,3.80
2019-05-03T14:38:15.102Z,3.57
2019-05-03T14:40:44.917Z,4.20
2019-05-03T14:43:15.468Z,3.90
2019-05-03T14:45:44.728Z,4.27
2019-05-03T14:48:15.222Z,3.80
2019-05-03T14:50:45.584Z,3.87
2019-05-03T14:53:14.933Z,3.80
2019-05-03T14:55:55.223Z,4.03
2019-05-03T14:58:49.222Z,3.77
2019-05-03T15:01:25.844Z,3.17
2019-05-03T15:03:55.071Z,3.17
2019-05-03T15:06:24.951Z,3.83
2019-05-03T15:08:54.714Z,3.30
2019-05-03T15:11:23.961Z,3.90
2019-05-03T15:13:54.954Z,3.63
2019-05-03T15:16:25.017Z,5.60
2019-05-03T15:18:54.834Z,4.77
2019-05-03T15:21:25.200Z,4.20
2019-05-03T15:23:54.812Z,4.60
2019-05-03T15:26:24.830Z,4.93
2019-05-03T15:28:55.451Z,5.13
2019-05-03T15:31:24.682Z,4.37
2019-05-03T15:33:55.511Z,4.20
2019-05-03T15:36:24.823Z,4.03
2019-05-03T15:38:55.213Z,5.20
2019-05-03T15:41:25.199Z,5.20
2019-05-03T15:44:00.109Z,4.57
2019-05-03T15:46:51.270Z,4.90
2019-05-03T15:49:20.431Z,4.90
2019-05-03T15:51:49.562Z,5.60
2019-05-03T15:54:18.612Z,4.57
2019-05-03T15:56:47.645Z,4.53
2019-05-03T15:59:16.714Z,5.27
2019-05-03T16:01:45.785Z,3.93
2019-05-03T16:04:14.872Z,3.83
2019-05-03T16:06:44.798Z,3.93
2019-05-03T16:09:15.246Z,4.80
2019-05-03T16:11:45.089Z,5.37
2019-05-03T16:14:15.310Z,5.40
2019-05-03T16:16:45.109Z,4.77
2019-05-03T16:19:14.691Z,4.40
2019-05-03T16:21:45.286Z,4.90
2019-05-03T16:24:15.436Z,4.43
2019-05-03T16:27:02.146Z,5.10
2019-05-03T16:29:31.210Z,4.03
2019-05-03T16:32:00.273Z,4.03
2019-05-03T16:34:29.442Z,3.67
2019-05-03T16:36:58.469Z,5.70
2019-05-03T16:39:27.598Z,4.17
2019-05-03T16:41:56.641Z,4.30
2019-05-03T16:44:25.753Z,4.70
2019-05-03T16:46:55.415Z,3.83
2019-05-03T16:49:24.687Z,4.27
2019-05-03T16:51:54.913Z,4.40
2019-05-03T16:54:25.457Z,4.97
2019-05-03T16:56:54.992Z,4.43
2019-05-03T16:59:24.721Z,4.07
2019-05-03T17:01:55.177Z,4.37
2019-05-03T17:04:29.036Z,3.90
2019-05-03T17:07:17.032Z,3.60
2019-05-03T17:09:54.414Z,3.80
2019-05-03T17:12:28.097Z,4.17
2019-05-03T17:14:57.271Z,4.60
2019-05-03T17:17:26.386Z,4.13
2019-05-03T17:19:55.445Z,4.63
2019-05-03T17:22:25.189Z,5.13
2019-05-03T17:24:54.616Z,5.30
2019-05-03T17:27:24.981Z,5.13
2019-05-03T17:29:55.257Z,4.37
2019-05-03T17:32:24.780Z,4.60
2019-05-03T17:34:54.899Z,4.90
2019-05-03T17:37:25.716Z,3.97
2019-05-03T17:40:14.733Z,4.60
2019-05-03T17:43:00.472Z,5.10
2019-05-03T17:45:35.107Z,5.10
2019-05-03T17:48:04.611Z,5.10
2019-05-03T17:50:34.780Z,4.70
2019-05-03T17:53:23.041Z,5.03
2019-05-03T17:55:57.892Z,5.47
2019-05-03T17:58:32.303Z,4.57
2019-05-03T18:01:32.446Z,4.93
2019-05-03T18:04:09.468Z,5.43
2019-05-03T18:06:45.249Z,4.47
2019-05-03T18:09:23.334Z,5.13
2019-05-03T18:11:58.606Z,4.63
2019-05-03T18:14:27.683Z,5.10
2019-05-03T18:16:56.766Z,5.53
2019-05-03T18:19:25.905Z,4.77
2019-05-03T18:21:55.463Z,4.67
2019-05-03T18:24:24.790Z,4.43
2019-05-03T18:26:54.010Z,5.90
2019-05-03T18:29:25.129Z,4.97
2019-05-03T18:31:55.068Z,5.37
2019-05-03T18:34:24.950Z,4.80
2019-05-03T18:36:54.274Z,5.13
2019-05-03T18:39:25.111Z,4.07
2019-05-03T18:41:54.432Z,4.47
2019-05-03T18:44:34.694Z,3.87
2019-05-03T18:47:07.626Z,4.80
2019-05-03T18:49:36.713Z,5.33
2019-05-03T18:52:05.810Z,4.87
2019-05-03T18:54:35.181Z,4.23
2019-05-03T18:57:05.087Z,4.47
2019-05-03T18:59:34.345Z,4.83
2019-05-03T19:02:05.386Z,5.13
2019-05-03T19:04:41.327Z,4.40
2019-05-03T19:07:21.515Z,4.63
2019-05-03T19:10:15.650Z,4.83
2019-05-03T19:12:55.237Z,4.50
2019-05-03T19:15:25.098Z,5.40
2019-05-03T19:18:01.113Z,5.73
2019-05-03T19:20:30.269Z,5.07
2019-05-03T19:22:59.482Z,4.93
2019-05-03T19:25:28.631Z,5.50
2019-05-03T19:27:57.689Z,5.50
2019-05-03T19:30:26.758Z,4.80
2019-05-03T19:32:55.822Z,6.83
2019-05-03T19:35:27.625Z,4.53
2019-05-03T19:37:57.573Z,5.83
2019-05-03T19:40:26.956Z,4.33
2019-05-03T19:42:56.204Z,3.93
2019-05-03T19:45:25.535Z,4.13
2019-05-03T19:47:55.208Z,5.03
2019-05-03T19:50:27.119Z,6.30
2019-05-03T19:53:14.512Z,4.93
2019-05-03T19:55:44.861Z,3.50
2019-05-03T19:58:14.791Z,4.50
2019-05-03T20:01:03.024Z,5.13
2019-05-03T20:03:38.799Z,4.57
2019-05-03T20:06:25.202Z,4.20
2019-05-03T20:08:59.279Z,4.27
2019-05-03T20:11:28.352Z,4.70
2019-05-03T20:13:57.520Z,4.67
2019-05-03T20:16:26.598Z,4.57
2019-05-03T20:18:55.690Z,5.53
2019-05-03T20:21:25.294Z,5.03
2019-05-03T20:23:55.565Z,4.87
2019-05-03T20:26:25.300Z,5.43
2019-05-03T20:28:55.297Z,4.60
2019-05-03T20:31:25.254Z,4.40
2019-05-03T20:33:54.875Z,5.63
2019-05-03T20:36:24.141Z,5.73
2019-05-03T20:38:54.903Z,6.30
2019-05-03T20:41:25.538Z,7.67
2019-05-03T20:44:07.564Z,5.83
2019-05-03T20:46:45.726Z,5.93
2019-05-03T20:49:15.278Z,6.03
2019-05-03T20:51:45.042Z,6.50
2019-05-03T20:54:15.374Z,6.67
2019-05-03T20:56:45.567Z,6.40
2019-05-03T20:59:17.167Z,6.90
2019-05-03T21:01:46.290Z,6.43
2019-05-03T21:04:15.550Z,6.03
2019-05-03T21:06:45.506Z,6.20
2019-05-03T21:09:14.988Z,6.20
2019-05-03T21:11:44.804Z,7.00
2019-05-03T21:14:15.520Z,6.40
2019-05-03T21:17:07.051Z,6.60
2019-05-03T21:19:50.589Z,6.80
2019-05-03T21:22:26.049Z,6.93
2019-05-03T21:25:06.312Z,6.80
2019-05-03T21:27:35.222Z,7.30
2019-05-03T21:30:05.071Z,7.07
2019-05-03T21:32:35.167Z,7.30
2019-05-03T21:35:05.436Z,6.30
2019-05-03T21:37:34.892Z,6.80
2019-05-03T21:40:05.141Z,6.93
2019-05-03T21:42:35.056Z,6.53
2019-05-03T21:45:04.854Z,6.73
2019-05-03T21:47:48.621Z,7.10
2019-05-03T21:50:19.161Z,5.87
2019-05-03T21:52:48.236Z,5.33
2019-05-03T21:55:17.361Z,5.63
2019-05-03T21:57:46.694Z,5.77
2019-05-03T22:00:16.667Z,5.20
2019-05-03T22:02:45.754Z,5.40
2019-05-03T22:05:16.488Z,5.70
2019-05-03T22:07:45.762Z,6.00
2019-05-03T22:10:15.097Z,6.13
2019-05-03T22:12:44.319Z,6.37
2019-05-03T22:15:21.191Z,6.57
2019-05-03T22:18:15.282Z,6.57
2019-05-03T22:20:54.925Z,6.13
2019-05-03T22:23:42.288Z,6.77
2019-05-03T22:26:11.357Z,7.23
2019-05-03T22:28:40.472Z,6.70
2019-05-03T22:31:09.500Z,7.20
2019-05-03T22:33:38.548Z,6.80
2019-05-03T22:36:09.056Z,6.40
2019-05-03T22:38:38.523Z,6.70
2019-05-03T22:41:07.733Z,7.03
2019-05-03T22:43:36.745Z,6.90
2019-05-03T22:46:05.759Z,7.53
2019-05-03T22:48:34.829Z,6.87
2019-05-03T22:51:04.839Z,6.33
2019-05-03T22:53:34.363Z,7.00
2019-05-03T22:56:04.876Z,7.43
2019-05-03T22:58:35.464Z,6.20
2019-05-03T23:01:04.596Z,6.97
2019-05-03T23:03:44.619Z,7.03
2019-05-03T23:06:20.345Z,7.13
2019-05-03T23:08:44.016Z,7.27
2019-05-03T23:11:13.044Z,7.43
2019-05-03T23:13:42.075Z,8.10
2019-05-03T23:16:11.066Z,8.13
2019-05-03T23:18:41.036Z,9.00
2019-05-03T23:21:15.793Z,9.87
2019-05-03T23:23:54.972Z,9.13
2019-05-03T23:26:25.405Z,9.93
2019-05-03T23:28:55.101Z,9.63
2019-05-03T23:31:25.167Z,9.23
2019-05-03T23:33:54.707Z,10.17
2019-05-03T23:36:33.100Z,11.27
2019-05-03T23:38:54.752Z,9.50
2019-05-03T23:41:24.530Z,10.30
2019-05-03T23:43:53.750Z,10.37
2019-05-03T23:46:28.787Z,10.53
2019-05-03T23:48:57.896Z,8.60
2019-05-03T23:51:44.793Z,9.37
2019-05-03T23:54:14.967Z,10.07
2019-05-03T23:56:45.817Z,10.00
2019-05-03T23:59:15.136Z,9.83
